sensor_id;sensor_type;location;lat;lon;timestamp;P1;durP1;ratioP1;P2;durP2;ratioP2
23782;SDS011;12071;50.850;4.446;2023-07-13T00:01:46;4.07;;;1.58;;
23782;SDS011;12071;50.850;4.446;2023-07-13T00:04:14;6.78;;;1.70;;
23782;SDS011;12071;50.850;4.446;2023-07-13T00:06:44;7.22;;;1.55;;
23782;SDS011;12071;50.850;4.446;2023-07-13T00:09:12;6.85;;;1.70;;
23782;SDS011;12071;50.850;4.446;2023-07-13T00:11:39;6.80;;;1.80;;
23782;SDS011;12071;50.850;4.446;2023-07-13T00:14:05;7.40;;;2.20;;
23782;SDS011;12071;50.850;4.446;2023-07-13T00:16:31;6.00;;;1.42;;
23782;SDS011;12071;50.850;4.446;2023-07-13T00:18:57;6.43;;;1.70;;
23782;SDS011;12071;50.850;4.446;2023-07-13T00:21:25;14.32;;;1.75;;
23782;SDS011;12071;50.850;4.446;2023-07-13T00:23:51;6.47;;;1.70;;
23782;SDS011;12071;50.850;4.446;2023-07-13T00:26:16;6.63;;;1.70;;
23782;SDS011;12071;50.850;4.446;2023-07-13T00:28:42;9.30;;;2.17;;
23782;SDS011;12071;50.850;4.446;2023-07-13T00:31:09;7.45;;;1.95;;
23782;SDS011;12071;50.850;4.446;2023-07-13T00:33:35;9.57;;;2.25;;
23782;SDS011;12071;50.850;4.446;2023-07-13T00:36:02;5.65;;;1.63;;
23782;SDS011;12071;50.850;4.446;2023-07-13T00:38:28;9.25;;;1.63;;
23782;SDS011;12071;50.850;4.446;2023-07-13T00:40:54;4.35;;;1.35;;
23782;SDS011;12071;50.850;4.446;2023-07-13T00:43:20;10.65;;;2.08;;
23782;SDS011;12071;50.850;4.446;2023-07-13T00:48:20;9.98;;;2.30;;
23782;SDS011;12071;50.850;4.446;2023-07-13T00:50:50;7.63;;;2.10;;
23782;SDS011;12071;50.850;4.446;2023-07-13T00:53:17;8.40;;;2.13;;
23782;SDS011;12071;50.850;4.446;2023-07-13T00:55:45;9.80;;;2.10;;
23782;SDS011;12071;50.850;4.446;2023-07-13T00:58:12;13.38;;;2.47;;
23782;SDS011;12071;50.850;4.446;2023-07-13T01:00:38;10.63;;;2.00;;
23782;SDS011;12071;50.850;4.446;2023-07-13T01:03:05;8.95;;;2.60;;
23782;SDS011;12071;50.850;4.446;2023-07-13T01:05:31;6.50;;;1.92;;
23782;SDS011;12071;50.850;4.446;2023-07-13T01:07:59;7.83;;;2.40;;
23782;SDS011;12071;50.850;4.446;2023-07-13T01:10:26;7.38;;;2.08;;
23782;SDS011;12071;50.850;4.446;2023-07-13T01:12:52;10.77;;;2.15;;
23782;SDS011;12071;50.850;4.446;2023-07-13T01:18:23;13.63;;;2.50;;
23782;SDS011;12071;50.850;4.446;2023-07-13T01:23:23;12.77;;;2.42;;
23782;SDS011;12071;50.850;4.446;2023-07-13T01:25:50;9.43;;;3.08;;
23782;SDS011;12071;50.850;4.446;2023-07-13T01:28:17;8.68;;;1.70;;
23782;SDS011;12071;50.850;4.446;2023-07-13T01:30:43;7.50;;;2.40;;
23782;SDS011;12071;50.850;4.446;2023-07-13T01:33:11;8.50;;;1.90;;
23782;SDS011;12071;50.850;4.446;2023-07-13T01:35:39;10.15;;;2.33;;
23782;SDS011;12071;50.850;4.446;2023-07-13T01:38:05;11.48;;;2.53;;
23782;SDS011;12071;50.850;4.446;2023-07-13T01:40:30;7.07;;;1.90;;
23782;SDS011;12071;50.850;4.446;2023-07-13T01:42:57;12.07;;;2.20;;
23782;SDS011;12071;50.850;4.446;2023-07-13T01:45:23;10.43;;;2.28;;
23782;SDS011;12071;50.850;4.446;2023-07-13T01:47:49;9.20;;;1.67;;
23782;SDS011;12071;50.850;4.446;2023-07-13T01:50:15;8.73;;;2.30;;
23782;SDS011;12071;50.850;4.446;2023-07-13T01:52:41;13.35;;;2.63;;
23782;SDS011;12071;50.850;4.446;2023-07-13T01:55:06;6.75;;;1.90;;
23782;SDS011;12071;50.850;4.446;2023-07-13T01:57:32;12.52;;;2.45;;
23782;SDS011;12071;50.850;4.446;2023-07-13T01:59:58;13.82;;;2.53;;
23782;SDS011;12071;50.850;4.446;2023-07-13T02:02:24;9.10;;;2.20;;
23782;SDS011;12071;50.850;4.446;2023-07-13T02:04:49;14.20;;;2.15;;
23782;SDS011;12071;50.850;4.446;2023-07-13T02:07:15;9.60;;;2.22;;
23782;SDS011;12071;50.850;4.446;2023-07-13T02:09:40;10.27;;;2.20;;
23782;SDS011;12071;50.850;4.446;2023-07-13T02:12:07;13.48;;;2.70;;
23782;SDS011;12071;50.850;4.446;2023-07-13T02:14:33;12.70;;;2.28;;
23782;SDS011;12071;50.850;4.446;2023-07-13T02:16:58;9.45;;;2.72;;
23782;SDS011;12071;50.850;4.446;2023-07-13T02:19:24;9.32;;;2.10;;
23782;SDS011;12071;50.850;4.446;2023-07-13T02:21:50;11.25;;;2.15;;
23782;SDS011;12071;50.850;4.446;2023-07-13T02:24:15;8.82;;;2.15;;
23782;SDS011;12071;50.850;4.446;2023-07-13T02:26:45;13.85;;;2.75;;
23782;SDS011;12071;50.850;4.446;2023-07-13T02:29:11;10.10;;;2.70;;
23782;SDS011;12071;50.850;4.446;2023-07-13T02:31:37;11.68;;;2.25;;
23782;SDS011;12071;50.850;4.446;2023-07-13T02:34:03;14.73;;;2.60;;
23782;SDS011;12071;50.850;4.446;2023-07-13T02:36:29;14.43;;;2.45;;
23782;SDS011;12071;50.850;4.446;2023-07-13T02:38:55;13.43;;;2.85;;
23782;SDS011;12071;50.850;4.446;2023-07-13T02:41:21;11.68;;;2.80;;
23782;SDS011;12071;50.850;4.446;2023-07-13T02:43:48;10.98;;;2.75;;
23782;SDS011;12071;50.850;4.446;2023-07-13T02:46:13;11.18;;;2.45;;
23782;SDS011;12071;50.850;4.446;2023-07-13T02:48:39;16.42;;;3.28;;
23782;SDS011;12071;50.850;4.446;2023-07-13T02:51:05;11.30;;;2.50;;
23782;SDS011;12071;50.850;4.446;2023-07-13T02:53:32;12.75;;;2.90;;
23782;SDS011;12071;50.850;4.446;2023-07-13T02:55:58;12.32;;;2.65;;
23782;SDS011;12071;50.850;4.446;2023-07-13T02:58:24;7.40;;;2.47;;
23782;SDS011;12071;50.850;4.446;2023-07-13T03:00:50;9.98;;;3.05;;
23782;SDS011;12071;50.850;4.446;2023-07-13T03:03:16;12.75;;;2.65;;
23782;SDS011;12071;50.850;4.446;2023-07-13T03:05:43;10.05;;;2.60;;
23782;SDS011;12071;50.850;4.446;2023-07-13T03:08:14;9.40;;;2.28;;
23782;SDS011;12071;50.850;4.446;2023-07-13T03:10:39;13.48;;;2.78;;
23782;SDS011;12071;50.850;4.446;2023-07-13T03:13:05;12.25;;;2.92;;
23782;SDS011;12071;50.850;4.446;2023-07-13T03:15:31;10.10;;;2.67;;
23782;SDS011;12071;50.850;4.446;2023-07-13T03:17:57;13.65;;;2.83;;
23782;SDS011;12071;50.850;4.446;2023-07-13T03:20:22;15.65;;;3.38;;
23782;SDS011;12071;50.850;4.446;2023-07-13T03:22:48;13.82;;;2.85;;
23782;SDS011;12071;50.850;4.446;2023-07-13T03:25:13;10.57;;;2.95;;
23782;SDS011;12071;50.850;4.446;2023-07-13T03:27:39;14.18;;;3.28;;
23782;SDS011;12071;50.850;4.446;2023-07-13T03:30:05;10.25;;;2.90;;
23782;SDS011;12071;50.850;4.446;2023-07-13T03:32:31;11.88;;;2.40;;
23782;SDS011;12071;50.850;4.446;2023-07-13T03:34:57;13.15;;;2.88;;
23782;SDS011;12071;50.850;4.446;2023-07-13T03:37:22;9.35;;;2.60;;
23782;SDS011;12071;50.850;4.446;2023-07-13T03:39:48;12.13;;;3.10;;
23782;SDS011;12071;50.850;4.446;2023-07-13T03:42:15;14.57;;;3.05;;
23782;SDS011;12071;50.850;4.446;2023-07-13T03:44:40;14.73;;;3.65;;
23782;SDS011;12071;50.850;4.446;2023-07-13T03:47:06;9.57;;;2.80;;
23782;SDS011;12071;50.850;4.446;2023-07-13T03:49:33;14.07;;;2.88;;
23782;SDS011;12071;50.850;4.446;2023-07-13T03:52:00;13.20;;;2.63;;
23782;SDS011;12071;50.850;4.446;2023-07-13T03:54:25;15.30;;;2.70;;
23782;SDS011;12071;50.850;4.446;2023-07-13T03:56:51;11.43;;;3.25;;
23782;SDS011;12071;50.850;4.446;2023-07-13T03:59:17;11.60;;;2.80;;
23782;SDS011;12071;50.850;4.446;2023-07-13T04:01:43;11.55;;;2.90;;
23782;SDS011;12071;50.850;4.446;2023-07-13T04:04:09;12.88;;;3.15;;
23782;SDS011;12071;50.850;4.446;2023-07-13T04:06:35;13.45;;;3.10;;
23782;SDS011;12071;50.850;4.446;2023-07-13T04:09:01;12.05;;;2.58;;
23782;SDS011;12071;50.850;4.446;2023-07-13T04:11:30;11.57;;;3.08;;
23782;SDS011;12071;50.850;4.446;2023-07-13T04:13:57;15.13;;;3.03;;
23782;SDS011;12071;50.850;4.446;2023-07-13T04:16:23;14.98;;;2.70;;
23782;SDS011;12071;50.850;4.446;2023-07-13T04:18:49;16.20;;;2.85;;
23782;SDS011;12071;50.850;4.446;2023-07-13T04:21:15;15.65;;;3.65;;
23782;SDS011;12071;50.850;4.446;2023-07-13T04:23:41;12.15;;;2.78;;
23782;SDS011;12071;50.850;4.446;2023-07-13T04:26:08;11.93;;;2.75;;
23782;SDS011;12071;50.850;4.446;2023-07-13T04:28:34;15.70;;;3.08;;
23782;SDS011;12071;50.850;4.446;2023-07-13T04:31:00;14.68;;;3.22;;
23782;SDS011;12071;50.850;4.446;2023-07-13T04:33:26;13.48;;;3.35;;
23782;SDS011;12071;50.850;4.446;2023-07-13T04:35:53;15.65;;;3.15;;
23782;SDS011;12071;50.850;4.446;2023-07-13T04:38:25;16.25;;;3.45;;
23782;SDS011;12071;50.850;4.446;2023-07-13T04:40:54;14.02;;;2.80;;
23782;SDS011;12071;50.850;4.446;2023-07-13T04:43:21;10.65;;;2.60;;
23782;SDS011;12071;50.850;4.446;2023-07-13T04:45:47;16.90;;;4.10;;
23782;SDS011;12071;50.850;4.446;2023-07-13T04:48:12;16.05;;;3.95;;
23782;SDS011;12071;50.850;4.446;2023-07-13T04:50:38;9.57;;;2.78;;
23782;SDS011;12071;50.850;4.446;2023-07-13T04:53:04;11.68;;;2.60;;
23782;SDS011;12071;50.850;4.446;2023-07-13T04:55:30;17.02;;;3.53;;
23782;SDS011;12071;50.850;4.446;2023-07-13T04:57:56;12.25;;;2.40;;
23782;SDS011;12071;50.850;4.446;2023-07-13T05:00:23;17.75;;;3.40;;
23782;SDS011;12071;50.850;4.446;2023-07-13T05:02:50;10.38;;;2.70;;
23782;SDS011;12071;50.850;4.446;2023-07-13T05:05:16;13.05;;;3.25;;
23782;SDS011;12071;50.850;4.446;2023-07-13T05:07:46;19.27;;;3.10;;
23782;SDS011;12071;50.850;4.446;2023-07-13T05:10:12;15.73;;;3.08;;
23782;SDS011;12071;50.850;4.446;2023-07-13T05:12:38;13.60;;;2.92;;
23782;SDS011;12071;50.850;4.446;2023-07-13T05:15:03;13.27;;;2.92;;
23782;SDS011;12071;50.850;4.446;2023-07-13T05:17:29;15.25;;;3.40;;
23782;SDS011;12071;50.850;4.446;2023-07-13T05:19:55;17.20;;;3.20;;
23782;SDS011;12071;50.850;4.446;2023-07-13T05:22:21;11.57;;;3.47;;
23782;SDS011;12071;50.850;4.446;2023-07-13T05:27:22;14.63;;;3.58;;
23782;SDS011;12071;50.850;4.446;2023-07-13T05:29:48;16.90;;;3.78;;
23782;SDS011;12071;50.850;4.446;2023-07-13T05:32:14;15.10;;;3.35;;
23782;SDS011;12071;50.850;4.446;2023-07-13T05:34:39;18.73;;;3.10;;
23782;SDS011;12071;50.850;4.446;2023-07-13T05:37:05;18.25;;;3.28;;
23782;SDS011;12071;50.850;4.446;2023-07-13T05:39:30;17.05;;;3.05;;
23782;SDS011;12071;50.850;4.446;2023-07-13T05:41:56;18.63;;;3.90;;
23782;SDS011;12071;50.850;4.446;2023-07-13T05:44:22;12.30;;;3.65;;
23782;SDS011;12071;50.850;4.446;2023-07-13T05:46:47;16.63;;;3.05;;
23782;SDS011;12071;50.850;4.446;2023-07-13T05:49:13;14.20;;;3.58;;
23782;SDS011;12071;50.850;4.446;2023-07-13T05:51:39;18.33;;;3.35;;
23782;SDS011;12071;50.850;4.446;2023-07-13T05:54:04;18.08;;;3.70;;
23782;SDS011;12071;50.850;4.446;2023-07-13T05:56:30;12.75;;;3.55;;
23782;SDS011;12071;50.850;4.446;2023-07-13T05:58:56;14.38;;;3.45;;
23782;SDS011;12071;50.850;4.446;2023-07-13T06:01:21;12.55;;;3.53;;
23782;SDS011;12071;50.850;4.446;2023-07-13T06:03:48;12.15;;;2.83;;
23782;SDS011;12071;50.850;4.446;2023-07-13T06:06:14;15.82;;;3.42;;
23782;SDS011;12071;50.850;4.446;2023-07-13T06:08:40;16.85;;;3.15;;
23782;SDS011;12071;50.850;4.446;2023-07-13T06:11:07;11.80;;;3.00;;
23782;SDS011;12071;50.850;4.446;2023-07-13T06:13:40;10.55;;;2.97;;
23782;SDS011;12071;50.850;4.446;2023-07-13T06:16:06;16.08;;;3.20;;
23782;SDS011;12071;50.850;4.446;2023-07-13T06:18:33;13.73;;;3.50;;
23782;SDS011;12071;50.850;4.446;2023-07-13T06:21:04;11.95;;;3.35;;
23782;SDS011;12071;50.850;4.446;2023-07-13T06:23:51;17.42;;;3.25;;
23782;SDS011;12071;50.850;4.446;2023-07-13T06:26:18;12.75;;;3.22;;
23782;SDS011;12071;50.850;4.446;2023-07-13T06:28:44;15.82;;;3.22;;
23782;SDS011;12071;50.850;4.446;2023-07-13T06:31:10;13.85;;;3.80;;
23782;SDS011;12071;50.850;4.446;2023-07-13T06:33:37;14.95;;;3.35;;
23782;SDS011;12071;50.850;4.446;2023-07-13T06:36:04;12.18;;;3.53;;
23782;SDS011;12071;50.850;4.446;2023-07-13T06:38:31;13.55;;;3.58;;
23782;SDS011;12071;50.850;4.446;2023-07-13T06:40:57;16.20;;;3.45;;
23782;SDS011;12071;50.850;4.446;2023-07-13T06:43:22;15.40;;;3.63;;
23782;SDS011;12071;50.850;4.446;2023-07-13T06:45:50;14.00;;;3.90;;
23782;SDS011;12071;50.850;4.446;2023-07-13T06:48:16;12.30;;;3.33;;
23782;SDS011;12071;50.850;4.446;2023-07-13T06:50:43;13.32;;;3.10;;
23782;SDS011;12071;50.850;4.446;2023-07-13T06:53:09;17.27;;;3.22;;
23782;SDS011;12071;50.850;4.446;2023-07-13T06:55:36;15.75;;;3.20;;
23782;SDS011;12071;50.850;4.446;2023-07-13T06:58:02;16.73;;;4.00;;
23782;SDS011;12071;50.850;4.446;2023-07-13T07:00:28;10.88;;;3.17;;
23782;SDS011;12071;50.850;4.446;2023-07-13T07:02:53;11.77;;;3.10;;
23782;SDS011;12071;50.850;4.446;2023-07-13T07:05:19;20.98;;;3.47;;
23782;SDS011;12071;50.850;4.446;2023-07-13T07:07:47;15.57;;;3.60;;
23782;SDS011;12071;50.850;4.446;2023-07-13T07:10:13;12.10;;;3.28;;
23782;SDS011;12071;50.850;4.446;2023-07-13T07:12:38;14.05;;;3.38;;
23782;SDS011;12071;50.850;4.446;2023-07-13T07:15:04;12.43;;;2.85;;
23782;SDS011;12071;50.850;4.446;2023-07-13T07:17:30;12.18;;;3.38;;
23782;SDS011;12071;50.850;4.446;2023-07-13T07:19:56;17.30;;;3.63;;
23782;SDS011;12071;50.850;4.446;2023-07-13T07:22:21;14.73;;;3.20;;
23782;SDS011;12071;50.850;4.446;2023-07-13T07:24:47;13.02;;;2.85;;
23782;SDS011;12071;50.850;4.446;2023-07-13T07:27:13;16.02;;;3.72;;
23782;SDS011;12071;50.850;4.446;2023-07-13T07:29:38;15.60;;;3.83;;
23782;SDS011;12071;50.850;4.446;2023-07-13T07:32:04;13.48;;;2.65;;
23782;SDS011;12071;50.850;4.446;2023-07-13T07:34:30;10.55;;;2.88;;
23782;SDS011;12071;50.850;4.446;2023-07-13T07:36:58;9.00;;;3.10;;
23782;SDS011;12071;50.850;4.446;2023-07-13T07:39:26;12.65;;;3.47;;
23782;SDS011;12071;50.850;4.446;2023-07-13T07:41:52;8.80;;;2.70;;
23782;SDS011;12071;50.850;4.446;2023-07-13T07:44:17;10.35;;;2.83;;
23782;SDS011;12071;50.850;4.446;2023-07-13T07:46:43;13.93;;;3.17;;
23782;SDS011;12071;50.850;4.446;2023-07-13T07:49:09;10.32;;;2.95;;
23782;SDS011;12071;50.850;4.446;2023-07-13T07:51:35;11.13;;;3.10;;
23782;SDS011;12071;50.850;4.446;2023-07-13T07:54:01;9.52;;;3.10;;
23782;SDS011;12071;50.850;4.446;2023-07-13T07:56:26;13.00;;;3.60;;
23782;SDS011;12071;50.850;4.446;2023-07-13T07:58:52;10.18;;;3.28;;
23782;SDS011;12071;50.850;4.446;2023-07-13T08:01:18;10.68;;;3.17;;
23782;SDS011;12071;50.850;4.446;2023-07-13T08:03:44;16.95;;;3.63;;
23782;SDS011;12071;50.850;4.446;2023-07-13T08:06:09;10.32;;;2.90;;
23782;SDS011;12071;50.850;4.446;2023-07-13T08:08:35;9.93;;;3.25;;
23782;SDS011;12071;50.850;4.446;2023-07-13T08:11:04;17.25;;;3.13;;
23782;SDS011;12071;50.850;4.446;2023-07-13T08:15:57;12.00;;;2.80;;
23782;SDS011;12071;50.850;4.446;2023-07-13T08:18:23;9.90;;;2.80;;
23782;SDS011;12071;50.850;4.446;2023-07-13T08:20:49;12.00;;;2.70;;
23782;SDS011;12071;50.850;4.446;2023-07-13T08:23:15;7.63;;;2.65;;
23782;SDS011;12071;50.850;4.446;2023-07-13T08:25:41;11.68;;;2.65;;
23782;SDS011;12071;50.850;4.446;2023-07-13T08:28:07;9.65;;;2.95;;
23782;SDS011;12071;50.850;4.446;2023-07-13T08:30:33;17.92;;;3.05;;
23782;SDS011;12071;50.850;4.446;2023-07-13T08:32:59;10.68;;;3.13;;
23782;SDS011;12071;50.850;4.446;2023-07-13T08:35:24;9.32;;;2.80;;
23782;SDS011;12071;50.850;4.446;2023-07-13T08:37:51;11.60;;;3.15;;
23782;SDS011;12071;50.850;4.446;2023-07-13T08:40:17;11.35;;;3.65;;
23782;SDS011;12071;50.850;4.446;2023-07-13T08:42:51;11.52;;;3.75;;
23782;SDS011;12071;50.850;4.446;2023-07-13T08:45:22;8.85;;;2.90;;
23782;SDS011;12071;50.850;4.446;2023-07-13T08:47:51;12.25;;;3.03;;
23782;SDS011;12071;50.850;4.446;2023-07-13T08:50:19;12.13;;;2.95;;
23782;SDS011;12071;50.850;4.446;2023-07-13T08:52:49;7.20;;;2.50;;
23782;SDS011;12071;50.850;4.446;2023-07-13T08:55:27;9.60;;;2.40;;
